createdAt,value
2022-08-11T00:00:53.336Z,101738.94
2022-08-11T00:02:02.727Z,101749.75
2022-08-11T00:03:07.906Z,101745.56
2022-08-11T00:04:12.121Z,101751.81
2022-08-11T00:05:17.336Z,101747.41
2022-08-11T00:06:26.015Z,101751.13
2022-08-11T00:07:29.598Z,101752.19
2022-08-11T00:08:33.653Z,101742.53
2022-08-11T00:09:40.148Z,101747.09
2022-08-11T00:10:42.222Z,101746.28
2022-08-11T00:11:48.848Z,101745.44
2022-08-11T00:12:53.249Z,101747.47
2022-08-11T00:13:56.090Z,101745.81
2022-08-11T00:14:59.951Z,101737.69
2022-08-11T00:16:03.859Z,101745.97
2022-08-11T00:17:07.727Z,101748.88
2022-08-11T00:18:12.524Z,101743.63
2022-08-11T00:20:12.424Z,101750.25
2022-08-11T00:20:46.480Z,101748.56
2022-08-11T00:22:04.676Z,101747.22
2022-08-11T00:23:10.772Z,101743.03
2022-08-11T00:24:14.004Z,101740.53
2022-08-11T00:25:19.025Z,101743.38
2022-08-11T00:26:22.476Z,101747.97
2022-08-11T00:27:33.729Z,101750.00
2022-08-11T00:28:37.268Z,101743.09
2022-08-11T00:29:39.141Z,101744.97
2022-08-11T00:30:55.774Z,101741.56
2022-08-11T00:32:02.072Z,101740.75
2022-08-11T00:33:05.042Z,101745.31
2022-08-11T00:34:12.757Z,101738.22
2022-08-11T00:35:56.344Z,101745.50
2022-08-11T00:36:46.796Z,101735.88
2022-08-11T00:37:50.644Z,101742.28
2022-08-11T00:38:55.381Z,101742.50
2022-08-11T00:39:59.708Z,101739.94
2022-08-11T00:41:12.304Z,101732.84
2022-08-11T00:42:23.824Z,101734.91
2022-08-11T00:43:51.125Z,101735.91
2022-08-11T00:45:08.081Z,101738.81
2022-08-11T00:47:28.031Z,101742.03
2022-08-11T00:48:36.338Z,101738.47
2022-08-11T00:49:53.557Z,101738.69
2022-08-11T00:51:11.482Z,101744.41
2022-08-11T00:52:30.911Z,101734.59
2022-08-11T00:53:48.857Z,101737.66
2022-08-11T00:55:37.250Z,101746.81
2022-08-11T00:57:37.203Z,101742.59
2022-08-11T00:59:34.268Z,101743.78
2022-08-11T01:00:59.472Z,101744.16
2022-08-11T01:02:15.637Z,101753.47
2022-08-11T01:03:29.095Z,101745.34
2022-08-11T01:05:17.383Z,101748.22
2022-08-11T01:06:44.647Z,101748.41
2022-08-11T01:08:22.951Z,101746.72
2022-08-11T01:09:50.182Z,101746.03
2022-08-11T01:11:15.013Z,101743.53
2022-08-11T01:12:31.794Z,101742.69
2022-08-11T01:13:55.581Z,101736.78
2022-08-11T01:15:55.896Z,101739.47
2022-08-11T01:17:35.775Z,101734.44
2022-08-11T01:19:21.631Z,101738.13
2022-08-11T01:20:58.502Z,101737.47
2022-08-11T01:22:24.589Z,101735.97
2022-08-11T01:23:57.473Z,101731.59
2022-08-11T01:25:56.760Z,101733.78
2022-08-11T01:27:46.627Z,101726.88
2022-08-11T01:29:34.197Z,101739.56
2022-08-11T01:30:54.299Z,101732.66
2022-08-11T01:32:27.660Z,101734.66
2022-08-11T01:34:06.857Z,101730.44
2022-08-11T01:35:45.709Z,101729.78
2022-08-11T01:37:26.324Z,101729.09
2022-08-11T01:38:58.754Z,101741.81
2022-08-11T01:40:18.936Z,101733.00
2022-08-11T01:41:58.462Z,101736.06
2022-08-11T01:44:12.789Z,101734.38
2022-08-11T01:45:28.633Z,101735.41
2022-08-11T01:46:33.935Z,101740.13
2022-08-11T01:47:53.067Z,101740.47
2022-08-11T01:50:07.217Z,101735.06
2022-08-11T01:51:03.768Z,101733.22
2022-08-11T01:52:15.855Z,101736.94
2022-08-11T01:53:31.746Z,101736.28
2022-08-11T01:54:40.168Z,101739.81
2022-08-11T01:55:57.269Z,101739.81
2022-08-11T01:57:13.142Z,101737.97
2022-08-11T01:58:43.137Z,101739.97
2022-08-11T01:59:50.312Z,101737.28
2022-08-11T02:01:00.621Z,101741.03
2022-08-11T02:02:45.895Z,101743.72
2022-08-11T02:03:55.300Z,101734.88
2022-08-11T02:05:04.489Z,101738.63
2022-08-11T02:06:37.417Z,101739.63
2022-08-11T02:07:55.579Z,101733.56
2022-08-11T02:09:07.791Z,101741.69
2022-08-11T02:10:42.577Z,101741.84
2022-08-11T02:11:56.755Z,101739.28
2022-08-11T02:13:07.718Z,101736.94
2022-08-11T02:14:20.837Z,101737.97
2022-08-11T02:15:29.616Z,101738.97
2022-08-11T02:16:47.056Z,101734.59
2022-08-11T02:17:57.952Z,101738.31
2022-08-11T02:19:32.257Z,101734.94
2022-08-11T02:21:00.084Z,101729.72
2022-08-11T02:22:27.453Z,101736.13
2022-08-11T02:24:07.001Z,101735.63
2022-08-11T02:25:08.565Z,101741.03
2022-08-11T02:26:19.289Z,101734.28
2022-08-11T02:27:26.139Z,101731.56
2022-08-11T02:28:38.959Z,101738.00
2022-08-11T02:30:07.291Z,101735.47
2022-08-11T02:32:15.609Z,101738.34
2022-08-11T02:33:25.414Z,101741.72
2022-08-11T02:35:00.249Z,101733.97
2022-08-11T02:36:09.360Z,101735.81
2022-08-11T02:37:23.537Z,101735.16
2022-08-11T02:38:32.783Z,101736.16
2022-08-11T02:39:46.767Z,101745.25
2022-08-11T02:41:02.018Z,101735.66
2022-08-11T02:42:32.731Z,101732.28
2022-08-11T02:43:51.052Z,101737.00
2022-08-11T02:45:16.327Z,101739.03
2022-08-11T02:46:28.440Z,101742.94
2022-08-11T02:47:39.698Z,101736.69
2022-08-11T02:49:11.187Z,101737.03
2022-08-11T02:50:20.906Z,101735.31
2022-08-11T02:51:32.384Z,101740.06
2022-08-11T02:52:45.296Z,101752.72
2022-08-11T02:53:57.991Z,101744.78
2022-08-11T02:55:55.691Z,101746.81
2022-08-11T02:56:50.121Z,101750.50
2022-08-11T02:57:59.527Z,101743.44
2022-08-11T02:59:25.282Z,101746.47
2022-08-11T03:00:31.016Z,101737.53
2022-08-11T03:01:44.275Z,101742.25
2022-08-11T03:03:07.509Z,101750.34
2022-08-11T03:04:18.135Z,101752.38
2022-08-11T03:05:32.470Z,101755.25
2022-08-11T03:06:38.934Z,101746.47
2022-08-11T03:07:56.945Z,101749.31
2022-08-11T03:09:06.412Z,101743.25
2022-08-11T03:10:14.625Z,101746.97
2022-08-11T03:11:41.617Z,101750.81
2022-08-11T03:13:07.967Z,101753.69
2022-08-11T03:14:37.910Z,101749.47
2022-08-11T03:16:03.568Z,101743.22
2022-08-11T03:17:17.331Z,101742.41
2022-08-11T03:18:26.776Z,101755.19
2022-08-11T03:19:38.226Z,101748.13
2022-08-11T03:20:51.432Z,101745.59
2022-08-11T03:22:07.594Z,101748.44
2022-08-11T03:23:19.442Z,101753.03
2022-08-11T03:24:30.129Z,101750.47
2022-08-11T03:25:52.141Z,101744.22
2022-08-11T03:27:03.677Z,101747.09
2022-08-11T03:28:22.066Z,101741.19
2022-08-11T03:29:31.778Z,101745.75
2022-08-11T03:30:44.494Z,101745.91
2022-08-11T03:32:00.528Z,101746.09
2022-08-11T03:33:38.371Z,101742.69
2022-08-11T03:34:44.269Z,101737.28
2022-08-11T03:36:04.757Z,101742.88
2022-08-11T03:37:45.488Z,101736.63
2022-08-11T03:39:07.118Z,101744.06
2022-08-11T03:40:59.563Z,101737.97
2022-08-11T03:42:17.244Z,101736.44
2022-08-11T03:43:33.824Z,101739.31
2022-08-11T03:45:02.073Z,101739.47
2022-08-11T03:46:08.711Z,101737.78
2022-08-11T03:47:31.975Z,101737.97
2022-08-11T03:48:43.010Z,101736.25
2022-08-11T03:49:57.903Z,101742.66
2022-08-11T03:51:14.351Z,101734.75
2022-08-11T03:52:22.316Z,101743.84
2022-08-11T03:53:39.974Z,101739.47
2022-08-11T03:54:54.430Z,101737.59
2022-08-11T03:56:22.457Z,101738.63
2022-08-11T03:58:05.155Z,101737.78
2022-08-11T03:59:30.479Z,101739.63
2022-08-11T04:01:08.978Z,101737.94
2022-08-11T04:02:33.014Z,101739.97
2022-08-11T04:03:59.574Z,101739.97
2022-08-11T04:06:09.169Z,101741.81
2022-08-11T04:07:34.117Z,101739.97
2022-08-11T04:08:55.510Z,101742.97
2022-08-11T04:10:32.302Z,101737.59
2022-08-11T04:11:59.448Z,101738.78
2022-08-11T04:13:34.917Z,101744.31
2022-08-11T04:15:08.030Z,101747.19
2022-08-11T04:16:40.256Z,101749.88
2022-08-11T04:18:18.269Z,101740.94
2022-08-11T04:19:50.906Z,101738.25
2022-08-11T04:21:24.708Z,101744.66
2022-08-11T04:22:55.289Z,101741.28
2022-08-11T04:24:38.718Z,101748.34
2022-08-11T04:26:19.007Z,101743.97
2022-08-11T04:27:45.145Z,101750.38
2022-08-11T04:29:11.916Z,101756.94
2022-08-11T04:30:19.858Z,101749.69
2022-08-11T04:31:44.214Z,101740.75
2022-08-11T04:33:34.944Z,101738.72
2022-08-11T04:34:49.357Z,101742.44
2022-08-11T04:36:02.078Z,101747.00
2022-08-11T04:37:51.315Z,101745.13
2022-08-11T04:39:12.710Z,101746.31
2022-08-11T04:40:43.896Z,101745.31
2022-08-11T04:42:31.801Z,101740.91
2022-08-11T04:44:19.218Z,101744.47
2022-08-11T04:45:39.641Z,101748.16
2022-08-11T04:46:58.438Z,101743.94
2022-08-11T04:48:42.096Z,101744.94
2022-08-11T04:50:36.897Z,101745.97
2022-08-11T04:52:37.924Z,101744.25
2022-08-11T04:54:09.249Z,101749.81
2022-08-11T04:55:47.201Z,101746.28
2022-08-11T04:57:09.987Z,101749.00
2022-08-11T04:58:39.589Z,101753.34
2022-08-11T05:00:19.276Z,101749.66
2022-08-11T05:01:42.372Z,101744.25
2022-08-11T05:03:18.683Z,101751.34
2022-08-11T05:05:10.531Z,101751.03
2022-08-11T05:06:51.244Z,101756.41
2022-08-11T05:08:30.379Z,101747.31
2022-08-11T05:09:52.559Z,101748.16
2022-08-11T05:11:20.190Z,101756.09
2022-08-11T05:12:31.813Z,101756.09
2022-08-11T05:14:01.743Z,101753.22
2022-08-11T05:15:23.516Z,101754.91
2022-08-11T05:16:49.886Z,101753.06
2022-08-11T05:18:19.090Z,101759.13
2022-08-11T05:19:40.532Z,101755.44
2022-08-11T05:21:07.560Z,101763.38
2022-08-11T05:22:32.115Z,101756.81
2022-08-11T05:23:57.989Z,101760.16
2022-08-11T05:26:44.063Z,101762.72
2022-08-11T05:27:13.629Z,101767.94
2022-08-11T05:28:49.403Z,101772.31
2022-08-11T05:30:18.931Z,101770.28
2022-08-11T05:31:43.960Z,101771.00
2022-08-11T05:33:15.986Z,101771.66
2022-08-11T05:34:40.775Z,101768.81
2022-08-11T05:36:00.782Z,101772.19
2022-08-11T05:37:25.816Z,101781.78
2022-08-11T05:38:50.008Z,101776.25
2022-08-11T05:40:18.499Z,101776.06
2022-08-11T05:41:42.200Z,101776.59
2022-08-11T05:43:08.375Z,101775.41
2022-08-11T05:44:29.700Z,101772.38
2022-08-11T05:46:03.693Z,101767.66
2022-08-11T05:47:26.146Z,101770.53
2022-08-11T05:48:51.565Z,101772.25
2022-08-11T05:50:13.748Z,101775.50
2022-08-11T05:51:35.873Z,101772.31
2022-08-11T05:52:57.402Z,101770.78
2022-08-11T05:54:28.502Z,101767.72
2022-08-11T05:56:03.218Z,101768.91
2022-08-11T05:57:07.451Z,101784.56
2022-08-11T05:58:11.195Z,101772.59
2022-08-11T05:59:15.723Z,101777.63
2022-08-11T06:00:19.749Z,101775.56
2022-08-11T06:01:24.828Z,101778.06
2022-08-11T06:02:28.850Z,101778.22
2022-08-11T06:03:57.957Z,101777.34
2022-08-11T06:05:02.389Z,101774.78
2022-08-11T06:06:09.040Z,101780.16
2022-08-11T06:07:17.534Z,101773.19
2022-08-11T06:08:27.710Z,101778.91
2022-08-11T06:09:33.829Z,101775.56
2022-08-11T06:10:37.400Z,101775.84
2022-08-11T06:11:43.979Z,101778.53
2022-08-11T06:12:55.806Z,101776.13
2022-08-11T06:13:58.266Z,101772.69
2022-08-11T06:15:05.739Z,101772.66
2022-08-11T06:16:08.701Z,101780.69
2022-08-11T06:17:14.135Z,101776.25
2022-08-11T06:18:16.759Z,101775.72
2022-08-11T06:19:24.490Z,101777.69
2022-08-11T06:20:26.764Z,101776.97
2022-08-11T06:21:35.955Z,101770.00
2022-08-11T06:22:38.668Z,101767.78
2022-08-11T06:23:43.158Z,101779.09
2022-08-11T06:24:53.270Z,101763.47
2022-08-11T06:25:56.659Z,101774.63
2022-08-11T06:27:12.287Z,101771.19
2022-08-11T06:28:20.794Z,101769.78
2022-08-11T06:29:38.111Z,101772.41
2022-08-11T06:30:49.798Z,101767.28
2022-08-11T06:31:55.660Z,101775.31
2022-08-11T06:33:02.605Z,101768.34
2022-08-11T06:34:11.136Z,101765.91
2022-08-11T06:35:20.642Z,101769.72
2022-08-11T06:36:32.138Z,101772.75
2022-08-11T06:37:46.884Z,101770.31
2022-08-11T06:39:01.428Z,101768.75
2022-08-11T06:40:08.262Z,101767.16
2022-08-11T06:41:37.728Z,101765.75
2022-08-11T06:42:49.150Z,101767.88
2022-08-11T06:43:55.859Z,101765.25
2022-08-11T06:45:13.918Z,101771.16
2022-08-11T06:46:26.900Z,101767.88
2022-08-11T06:47:31.954Z,101761.88
2022-08-11T06:48:40.137Z,101768.44
2022-08-11T06:50:03.990Z,101767.03
2022-08-11T06:51:12.185Z,101770.38
2022-08-11T06:52:45.099Z,101770.00
2022-08-11T06:53:56.195Z,101766.91
2022-08-11T06:55:56.265Z,101771.09
2022-08-11T06:57:12.415Z,101774.47
2022-08-11T06:58:37.338Z,101766.13
2022-08-11T06:59:58.359Z,101771.22
2022-08-11T07:01:06.984Z,101766.44
2022-08-11T07:02:21.097Z,101769.16
2022-08-11T07:03:24.481Z,101770.19
2022-08-11T07:04:33.403Z,101771.88
2022-08-11T07:05:48.493Z,101771.22
2022-08-11T07:07:20.346Z,101777.84
2022-08-11T07:09:33.767Z,101779.84
2022-08-11T07:11:10.408Z,101775.16
2022-08-11T07:12:56.318Z,101778.22
2022-08-11T07:14:20.412Z,101773.00
2022-08-11T07:16:12.445Z,101772.16
2022-08-11T07:17:10.989Z,101780.50
2022-08-11T07:18:40.109Z,101772.16
2022-08-11T07:20:06.367Z,101772.16
2022-08-11T07:22:00.646Z,101775.91
2022-08-11T07:23:16.558Z,101782.19
2022-08-11T07:25:01.579Z,101777.59
2022-08-11T07:26:23.758Z,101773.00
2022-08-11T07:27:55.707Z,101777.22
2022-08-11T07:29:00.077Z,101773.47
2022-08-11T07:30:05.328Z,101774.78
2022-08-11T07:31:13.931Z,101770.16
2022-08-11T07:32:23.257Z,101768.97
2022-08-11T07:34:08.169Z,101772.97
2022-08-11T07:35:00.524Z,101767.53
2022-08-11T07:36:05.132Z,101770.72
2022-08-11T07:37:12.515Z,101771.22
2022-08-11T07:38:25.281Z,101773.53
2022-08-11T07:39:33.439Z,101773.34
2022-08-11T07:40:36.455Z,101769.63
2022-08-11T07:41:39.315Z,101764.66
2022-08-11T07:42:46.469Z,101764.25
2022-08-11T07:43:52.744Z,101770.34
2022-08-11T07:45:14.857Z,101764.72
2022-08-11T07:46:50.855Z,101762.81
2022-08-11T07:48:13.173Z,101759.94
2022-08-11T07:49:33.897Z,101762.25
2022-08-11T07:50:59.593Z,101761.03
2022-08-11T07:52:21.571Z,101764.41
2022-08-11T07:53:24.484Z,101761.28
2022-08-11T07:54:28.072Z,101758.19
2022-08-11T07:55:50.839Z,101760.50
2022-08-11T07:57:08.893Z,101761.16
2022-08-11T07:58:32.620Z,101757.41
2022-08-11T08:00:05.556Z,101758.44
2022-08-11T08:01:29.446Z,101751.97
2022-08-11T08:02:50.265Z,101752.81
2022-08-11T08:04:11.490Z,101756.16
2022-08-11T08:05:34.177Z,101759.53
2022-08-11T08:06:57.866Z,101752.22
2022-08-11T08:08:18.240Z,101756.63
2022-08-11T08:09:40.783Z,101751.66
2022-08-11T08:11:01.958Z,101756.88
2022-08-11T08:12:23.875Z,101754.59
2022-08-11T08:13:44.241Z,101757.13
2022-08-11T08:15:05.395Z,101753.00
2022-08-11T08:16:25.587Z,101754.47
2022-08-11T08:17:45.835Z,101759.91
2022-08-11T08:19:08.694Z,101753.63
2022-08-11T08:20:13.741Z,101758.69
2022-08-11T08:21:16.846Z,101763.09
2022-08-11T08:22:38.157Z,101761.00
2022-08-11T08:23:45.917Z,101758.97
2022-08-11T08:24:49.424Z,101765.22
2022-08-11T08:25:53.489Z,101759.44
2022-08-11T08:26:59.260Z,101760.91
2022-08-11T08:28:05.456Z,101758.81
2022-08-11T08:29:26.244Z,101761.16
2022-08-11T08:30:47.343Z,101758.25
2022-08-11T08:31:50.930Z,101759.72
2022-08-11T08:32:57.659Z,101766.44
2022-08-11T08:33:59.406Z,101760.63
2022-08-11T08:35:03.504Z,101762.94
2022-08-11T08:36:15.128Z,101757.09
2022-08-11T08:37:46.117Z,101759.41
2022-08-11T08:38:49.309Z,101757.31
2022-08-11T08:39:51.536Z,101758.00
2022-08-11T08:40:56.410Z,101763.88
2022-08-11T08:41:59.883Z,101758.88
2022-08-11T08:43:08.466Z,101757.41
2022-08-11T08:44:37.264Z,101758.91
2022-08-11T08:45:40.432Z,101758.72
2022-08-11T08:46:46.051Z,101761.03
2022-08-11T08:47:54.046Z,101757.91
2022-08-11T08:48:59.918Z,101760.22
2022-08-11T08:50:05.519Z,101754.38
2022-08-11T08:51:57.085Z,101760.28
2022-08-11T08:53:01.938Z,101765.72
2022-08-11T08:54:08.877Z,101767.03
2022-08-11T08:55:18.099Z,101767.28
2022-08-11T08:56:28.090Z,101761.63
2022-08-11T08:57:39.610Z,101770.44
2022-08-11T08:58:43.492Z,101764.16
2022-08-11T08:59:49.430Z,101768.97
2022-08-11T09:00:55.440Z,101764.19
2022-08-11T09:02:00.789Z,101771.94
2022-08-11T09:03:22.821Z,101761.91
2022-08-11T09:04:27.724Z,101759.19
2022-08-11T09:05:30.731Z,101763.38
2022-08-11T09:06:32.916Z,101767.56
2022-08-11T09:07:39.797Z,101761.94
2022-08-11T09:08:45.136Z,101766.31
2022-08-11T09:09:50.096Z,101767.16
2022-08-11T09:11:11.858Z,101770.09
2022-08-11T09:12:38.170Z,101759.22
2022-08-11T09:13:44.180Z,101763.59
2022-08-11T09:15:03.457Z,101764.88
2022-08-11T09:16:06.371Z,101768.22
2022-08-11T09:17:09.119Z,101757.97
2022-08-11T09:18:13.194Z,101759.66
2022-08-11T09:19:17.773Z,101764.06
2022-08-11T09:20:23.839Z,101759.25
2022-08-11T09:21:49.173Z,101766.38
2022-08-11T09:24:50.291Z,101761.56
2022-08-11T09:26:13.868Z,101755.72
2022-08-11T09:27:16.559Z,101762.63
2022-08-11T09:28:20.524Z,101759.94
2022-08-11T09:29:23.617Z,101754.28
2022-08-11T09:30:26.721Z,101757.44
2022-08-11T09:31:37.221Z,101755.38
2022-08-11T09:32:42.910Z,101754.34
2022-08-11T09:33:46.557Z,101757.69
2022-08-11T09:34:52.497Z,101761.03
2022-08-11T09:35:57.261Z,101752.69
2022-08-11T09:37:53.681Z,101752.44
2022-08-11T09:39:00.020Z,101758.13
2022-08-11T09:40:22.386Z,101751.41
2022-08-11T09:42:00.545Z,101756.69
2022-08-11T09:43:10.775Z,101748.09
2022-08-11T09:44:32.212Z,101749.56
2022-08-11T09:45:40.127Z,101747.44
2022-08-11T09:46:43.294Z,101747.88
2022-08-11T09:47:46.692Z,101745.59
2022-08-11T09:48:48.633Z,101745.16
2022-08-11T09:49:53.735Z,101748.53
2022-08-11T09:50:59.700Z,101744.75
2022-08-11T09:52:09.349Z,101748.53
2022-08-11T09:53:37.187Z,101741.41
2022-08-11T09:54:36.747Z,101743.09
2022-08-11T09:55:41.094Z,101744.34
2022-08-11T09:57:05.506Z,101742.88
2022-08-11T09:58:43.282Z,101736.56
2022-08-11T09:59:36.517Z,101740.16
2022-08-11T10:00:40.113Z,101733.66
2022-08-11T10:01:49.025Z,101739.53
2022-08-11T10:02:54.449Z,101735.53
2022-08-11T10:04:01.236Z,101730.94
2022-08-11T10:05:18.784Z,101730.09
2022-08-11T10:06:38.964Z,101725.91
2022-08-11T10:07:43.799Z,101727.19
2022-08-11T10:08:48.595Z,101734.75
2022-08-11T10:09:52.640Z,101718.81
2022-08-11T10:10:58.745Z,101725.53
2022-08-11T10:12:02.956Z,101728.03
2022-08-11T10:14:04.801Z,101725.50
2022-08-11T10:14:52.317Z,101722.78
2022-08-11T10:16:00.040Z,101724.44
2022-08-11T10:17:21.709Z,101716.25
2022-08-11T10:18:42.233Z,101719.63
2022-08-11T10:20:03.866Z,101714.38
2022-08-11T10:21:11.385Z,101716.25
2022-08-11T10:22:34.306Z,101710.19
2022-08-11T10:24:00.800Z,101720.91
2022-08-11T10:25:32.719Z,101713.31
2022-08-11T10:26:54.624Z,101717.31
2022-08-11T10:28:30.404Z,101710.41
2022-08-11T10:29:45.440Z,101709.53
2022-08-11T10:31:12.746Z,101713.13
2022-08-11T10:32:59.005Z,101705.53
2022-08-11T10:34:03.873Z,101701.56
2022-08-11T10:35:09.240Z,101703.66
2022-08-11T10:36:16.373Z,101704.88
2022-08-11T10:37:23.211Z,101710.75
2022-08-11T10:38:26.782Z,101704.47
2022-08-11T10:39:30.558Z,101703.41
2022-08-11T10:40:32.674Z,101699.84
2022-08-11T10:42:06.536Z,101695.22
2022-08-11T10:43:57.200Z,101699.41
2022-08-11T10:44:38.349Z,101701.09
2022-08-11T10:46:01.051Z,101696.50
2022-08-11T10:47:23.105Z,101688.50
2022-08-11T10:48:27.955Z,101695.03
2022-08-11T10:49:31.406Z,101685.78
2022-08-11T10:50:52.702Z,101687.47
2022-08-11T10:52:15.641Z,101683.88
2022-08-11T10:53:38.361Z,101688.50
2022-08-11T10:54:59.718Z,101683.03
2022-08-11T10:56:21.655Z,101687.47
2022-08-11T10:57:44.346Z,101685.56
2022-08-11T10:59:09.853Z,101679.28
2022-08-11T11:00:15.035Z,101679.69
2022-08-11T11:01:23.457Z,101670.22
2022-08-11T11:02:28.287Z,101684.31
2022-08-11T11:03:32.121Z,101676.97
2022-08-11T11:04:50.917Z,101670.47
2022-08-11T11:06:28.683Z,101672.13
2022-08-11T11:07:20.634Z,101674.03
2022-08-11T11:09:58.664Z,101666.47
2022-08-11T11:11:05.698Z,101671.72
2022-08-11T11:12:29.393Z,101667.91
2022-08-11T11:13:55.451Z,101657.44
2022-08-11T11:15:26.723Z,101662.88
2022-08-11T11:16:57.566Z,101659.97
2022-08-11T11:18:07.359Z,101666.88
2022-08-11T11:19:11.246Z,101664.13
2022-08-11T11:20:36.490Z,101665.41
2022-08-11T11:21:43.013Z,101660.78
2022-08-11T11:22:52.144Z,101658.41
2022-08-11T11:24:11.928Z,101660.09
2022-08-11T11:25:25.274Z,101659.06
2022-08-11T11:26:39.333Z,101651.47
2022-08-11T11:27:56.440Z,101660.31
2022-08-11T11:29:40.234Z,101642.44
2022-08-11T11:30:59.370Z,101646.03
2022-08-11T11:32:18.897Z,101647.72
2022-08-11T11:33:28.282Z,101648.94
2022-08-11T11:34:53.018Z,101643.06
2022-08-11T11:36:11.754Z,101639.03
2022-08-11T11:37:16.092Z,101638.84
2022-08-11T11:38:19.941Z,101635.69
2022-08-11T11:39:24.329Z,101637.13
2022-08-11T11:40:30.597Z,101626.19
2022-08-11T11:41:34.165Z,101624.91
2022-08-11T11:42:37.437Z,101627.22
2022-08-11T11:43:39.372Z,101632.22
2022-08-11T11:44:45.602Z,101631.19
2022-08-11T11:45:50.573Z,101630.13
2022-08-11T11:46:53.391Z,101625.28
2022-08-11T11:47:59.318Z,101627.81
2022-08-11T11:49:15.305Z,101629.47
2022-08-11T11:50:25.093Z,101619.16
2022-08-11T11:51:34.635Z,101615.78
2022-08-11T11:52:39.594Z,101613.84
2022-08-11T11:53:45.040Z,101623.28
2022-08-11T11:54:50.176Z,101613.81
2022-08-11T11:55:53.816Z,101607.50
2022-08-11T11:56:56.848Z,101621.78
2022-08-11T11:58:22.078Z,101612.53
2022-08-11T11:59:46.997Z,101612.97
2022-08-11T12:01:11.125Z,101612.97
2022-08-11T12:02:16.609Z,101603.09
2022-08-11T12:03:20.922Z,101613.59
2022-08-11T12:04:24.449Z,101611.47
2022-08-11T12:05:27.183Z,101603.28
2022-08-11T12:06:30.415Z,101605.75
2022-08-11T12:07:56.835Z,101606.59
2022-08-11T12:09:15.706Z,101605.41
2022-08-11T12:10:18.147Z,101607.06
2022-08-11T12:11:40.389Z,101603.28
2022-08-11T12:13:05.063Z,101604.31
2022-08-11T12:14:10.240Z,101595.06
2022-08-11T12:15:13.231Z,101599.03
2022-08-11T12:16:35.070Z,101593.97
2022-08-11T12:17:38.777Z,101593.13
2022-08-11T12:18:44.041Z,101594.38
2022-08-11T12:19:48.606Z,101586.97
2022-08-11T12:20:51.849Z,101586.78
2022-08-11T12:22:14.204Z,101595.13
2022-08-11T12:23:35.122Z,101583.38
2022-08-11T12:24:56.594Z,101582.53
2022-08-11T12:26:26.788Z,101578.72
2022-08-11T12:27:31.744Z,101583.13
2022-08-11T12:28:34.426Z,101585.81
2022-08-11T12:29:39.899Z,101587.03
2022-08-11T12:30:49.436Z,101584.06
2022-08-11T12:32:00.362Z,101571.25
2022-08-11T12:33:03.895Z,101576.72
2022-08-11T12:34:07.939Z,101574.81
2022-08-11T12:35:11.396Z,101568.28
2022-08-11T12:36:16.360Z,101563.44
2022-08-11T12:37:24.710Z,101554.38
2022-08-11T12:38:29.860Z,101564.47
2022-08-11T12:40:16.599Z,101557.97
2022-08-11T12:41:36.152Z,101557.97
2022-08-11T12:42:58.682Z,101552.03
2022-08-11T12:44:24.775Z,101550.78
2022-08-11T12:45:30.273Z,101552.25
2022-08-11T12:46:34.048Z,101554.28
2022-08-11T12:48:09.289Z,101551.09
2022-08-11T12:49:45.388Z,101549.91
2022-08-11T12:51:09.674Z,101547.97
2022-08-11T12:52:18.132Z,101549.06
2022-08-11T12:53:24.692Z,101547.97
2022-08-11T12:54:29.704Z,101548.59
2022-08-11T12:56:03.587Z,101554.91
2022-08-11T12:57:36.541Z,101538.13
2022-08-11T12:58:42.983Z,101539.78
2022-08-11T13:00:03.915Z,101543.97
2022-08-11T13:01:26.406Z,101542.50
2022-08-11T13:02:47.476Z,101529.47
2022-08-11T13:04:09.100Z,101545.63
2022-08-11T13:05:15.480Z,101534.69
2022-08-11T13:06:20.296Z,101536.38
2022-08-11T13:07:22.928Z,101535.06
2022-08-11T13:08:27.811Z,101540.31
2022-08-11T13:09:31.049Z,101529.97
2022-08-11T13:10:51.936Z,101532.50
2022-08-11T13:12:12.156Z,101530.38
2022-08-11T13:13:52.906Z,101526.56
2022-08-11T13:14:39.004Z,101538.34
2022-08-11T13:15:41.813Z,101531.34
2022-08-11T13:17:04.010Z,101533.88
2022-08-11T13:18:07.998Z,101524.81
2022-08-11T13:19:12.116Z,101523.75
2022-08-11T13:20:17.244Z,101524.59
2022-08-11T13:21:21.177Z,101521.63
2022-08-11T13:22:24.331Z,101526.41
2022-08-11T13:23:29.504Z,101515.47
2022-08-11T13:24:34.141Z,101511.66
2022-08-11T13:25:39.062Z,101510.59
2022-08-11T13:26:50.063Z,101513.34
2022-08-11T13:27:56.759Z,101509.53
2022-08-11T13:29:02.047Z,101507.66
2022-08-11T13:30:23.834Z,101506.09
2022-08-11T13:31:26.610Z,101510.75
2022-08-11T13:32:29.110Z,101508.63
2022-08-11T13:33:33.539Z,101515.53
2022-08-11T13:34:41.674Z,101503.91
2022-08-11T13:35:46.431Z,101508.91
2022-08-11T13:36:51.898Z,101503.84
2022-08-11T13:38:17.237Z,101503.38
2022-08-11T13:39:19.660Z,101506.97
2022-08-11T13:40:33.302Z,101507.56
2022-08-11T13:41:48.460Z,101502.31
2022-08-11T13:42:51.590Z,101497.44
2022-08-11T13:43:55.648Z,101509.22
2022-08-11T13:44:58.740Z,101499.34
2022-08-11T13:46:15.329Z,101494.91
2022-08-11T13:47:18.562Z,101502.53
2022-08-11T13:48:20.248Z,101501.47
2022-08-11T13:49:24.294Z,101502.06
2022-08-11T13:50:48.801Z,101494.50
2022-08-11T13:51:52.327Z,101496.59
2022-08-11T13:52:55.015Z,101488.19
2022-08-11T13:53:57.936Z,101490.66
2022-08-11T13:55:06.108Z,101490.66
2022-08-11T13:56:07.878Z,101495.91
2022-08-11T13:58:06.515Z,101488.56
2022-08-11T13:58:39.970Z,101486.88
2022-08-11T13:59:51.791Z,101485.19
2022-08-11T14:00:55.343Z,101485.19
2022-08-11T14:02:21.825Z,101487.72
2022-08-11T14:03:27.864Z,101488.75
2022-08-11T14:04:54.817Z,101485.19
2022-08-11T14:06:01.577Z,101483.88
2022-08-11T14:07:08.831Z,101484.25
2022-08-11T14:08:37.739Z,101475.56
2022-08-11T14:09:40.670Z,101469.28
2022-08-11T14:10:43.649Z,101480.00
2022-08-11T14:12:21.149Z,101474.50
2022-08-11T14:13:42.722Z,101477.13
2022-08-11T14:14:57.324Z,101469.97
2022-08-11T14:16:04.834Z,101478.56
2022-08-11T14:17:11.672Z,101473.94
2022-08-11T14:18:35.936Z,101471.66
2022-08-11T14:19:42.054Z,101467.84
2022-08-11T14:21:05.360Z,101470.09
2022-08-11T14:22:10.040Z,101478.31
2022-08-11T14:23:14.971Z,101472.41
2022-08-11T14:24:19.203Z,101473.00
2022-08-11T14:25:20.949Z,101468.09
2022-08-11T14:26:31.602Z,101473.34
2022-08-11T14:28:25.911Z,101465.97
2022-08-11T14:29:02.034Z,101471.94
2022-08-11T14:30:26.322Z,101462.88
2022-08-11T14:31:30.384Z,101457.63
2022-08-11T14:32:33.691Z,101459.31
2022-08-11T14:33:59.528Z,101460.97
2022-08-11T14:35:00.303Z,101456.78
2022-08-11T14:36:05.850Z,101463.94
2022-08-11T14:37:12.025Z,101460.16
2022-08-11T14:38:13.831Z,101455.50
2022-08-11T14:39:19.290Z,101453.34
2022-08-11T14:40:39.761Z,101450.41